Upper Bear Creek Observed Data For Previous 48 Hours

Caption
Day and Hour Reservoir Elevation (behind dam)* Tailwater Elevation (below dam)* Average Hourly Discharge*
6/20/2018 1 AM CDT 797.11 725.74 34
6/20/2018 2 AM CDT 797.11 725.74 34
6/20/2018 3 AM CDT 797.12 725.74 35
6/20/2018 4 AM CDT 797.12 725.74 35
6/20/2018 5 AM CDT 797.12 725.74 35
6/20/2018 6 AM CDT 797.12 725.74 35
6/20/2018 7 AM CDT 797.12 725.74 35
6/20/2018 8 AM CDT 797.12 725.74 35
6/20/2018 9 AM CDT 797.12 725.74 35
6/20/2018 10 AM CDT 797.12 725.74 35
6/20/2018 11 AM CDT 797.12 725.74 35
6/20/2018 12 PM CDT 797.12 725.74 35
6/20/2018 1 PM CDT 797.12 725.74 35
6/20/2018 2 PM CDT 797.12 725.74 35
6/20/2018 3 PM CDT 797.12 725.74 35
6/20/2018 4 PM CDT 797.12 725.74 35
6/20/2018 5 PM CDT 797.12 725.74 35
6/20/2018 6 PM CDT 797.12 725.74 35
6/20/2018 7 PM CDT 797.12 725.74 35
6/20/2018 8 PM CDT 797.13 725.75 36
6/20/2018 9 PM CDT 797.13 725.75 37
6/20/2018 10 PM CDT 797.13 725.75 37
6/20/2018 11 PM CDT 797.13 725.75 37
6/21/2018 12 AM CDT 797.13 725.75 37
6/21/2018 1 AM CDT 797.13 725.75 37
6/21/2018 2 AM CDT 797.13 725.75 37
6/21/2018 3 AM CDT 797.14 725.75 37
6/21/2018 4 AM CDT 797.16 725.77 39
6/21/2018 5 AM CDT 797.18 725.82 42
6/21/2018 6 AM CDT 797.19 725.83 44
6/21/2018 7 AM CDT 797.19 725.83 45
6/21/2018 8 AM CDT 797.24 726.02 49
6/21/2018 9 AM CDT 797.28 726.03 55
6/21/2018 10 AM CDT 797.28 725.98 59
6/21/2018 11 AM CDT 797.29 725.98 60
6/21/2018 12 PM CDT 797.30 725.98 62
6/21/2018 1 PM CDT 797.31 725.99 63
6/21/2018 2 PM CDT 797.32 725.99 65
6/21/2018 3 PM CDT 797.32 726.00 66
6/21/2018 4 PM CDT 797.33 726.00 67
6/21/2018 5 PM CDT 797.34 726.01 69
6/21/2018 6 PM CDT 797.34 726.01 70
6/21/2018 7 PM CDT 797.35 726.02 70
6/21/2018 8 PM CDT 797.35 726.03 71
6/21/2018 9 PM CDT 797.35 726.03 71
6/21/2018 10 PM CDT 797.36 726.05 72
6/21/2018 11 PM CDT 797.45 726.29 82

Elevations are in feet above sea level. Discharges are in cubic feet per second and are reported at the end of the hour.